This is the latest recevied weather packets stored in our database for station/object KB3FKJ. If no packets are shown the sender has not sent any weather packets the latest 1 day(s).
| Time | Temp. | Humidity | Pressure | Rain* | Wind** | Luminosity | Snow |
|---|---|---|---|---|---|---|---|
| 1836274785 | 18.89° C | 63% | 1020.1 hPa | 0 mm | 0.89 m/s, 85° | 0 W/m² | - |
| 1836274483 | 18.89° C | 62% | 1020 hPa | 0 mm | 0.45 m/s, 93° | 0 W/m² | - |
| 1836274336 | 18.89° C | 63% | 1020.1 hPa | 0 mm | 0.45 m/s, 82° | 0 W/m² | - |
| 1836274180 | 18.89° C | 62% | 1020.1 hPa | 0 mm | 0.89 m/s, 68° | 0 W/m² | - |
| 1836273875 | 18.89° C | 62% | 1020 hPa | 0 mm | 0.89 m/s, 107° | 0 W/m² | - |
| 1778046534 | 18.89° C | 52% | 1007.1 hPa | 0 mm | 0.45 m/s, 156° | 0 W/m² | - |
| 1778046231 | 18.89° C | 53% | 1007.1 hPa | 0 mm | 0.45 m/s, 151° | 0 W/m² | - |
| 1778045927 | 18.89° C | 52% | 1007.1 hPa | 0 mm | 0.45 m/s, 174° | 0 W/m² | - |
| 1778045626 | 18.89° C | 54% | 1007.2 hPa | 0 mm | 0.45 m/s, 134° | 0 W/m² | - |
| 1778045324 | 18.33° C | 54% | 1007.4 hPa | 0 mm | 0.45 m/s, 145° | 0 W/m² | - |
| 1778045022 | 18.33° C | 55% | 1007.4 hPa | 0 mm | 0.45 m/s, 233° | 0 W/m² | - |
| 1778044720 | 18.33° C | 54% | 1007.5 hPa | 0 mm | 0.45 m/s, 135° | 0 W/m² | - |
| 1778044416 | 18.33° C | 53% | 1007.4 hPa | 0 mm | 0 m/s | 0 W/m² | - |
| 1778044113 | 18.33° C | 53% | 1007.4 hPa | 0 mm | 0 m/s | 0 W/m² | - |
| 1778043810 | 18.33° C | 52% | 1007.6 hPa | 0 mm | 0.45 m/s, 75° | 0 W/m² | - |
| 1778043507 | 18.33° C | 53% | 1007.5 hPa | 0 mm | 0.45 m/s, 152° | 0 W/m² | - |
| 1778043204 | 18.33° C | 52% | 1007.4 hPa | 0 mm | 0 m/s | 0 W/m² | - |
| 1778042901 | 18.33° C | 53% | 1007.6 hPa | 0 mm | 0 m/s | 0 W/m² | - |
| 1778042599 | 18.89° C | 52% | 1007.5 hPa | 0 mm | 0 m/s | 0 W/m² | - |
| 1778042296 | 18.89° C | 50% | 1007.7 hPa | 0 mm | 0.45 m/s, 123° | 0 W/m² | - |
| 1778041993 | 18.89° C | 50% | 1007.6 hPa | 0 mm | 0.89 m/s, 135° | 0 W/m² | - |
| 1778041692 | 18.33° C | 52% | 1007.7 hPa | 0 mm | 0.45 m/s, 169° | 0 W/m² | - |
| 1778041390 | 17.78° C | 55% | 1007.7 hPa | 0 mm | 0 m/s | 0 W/m² | - |
| 1778041089 | 16.67° C | 59% | 1007.6 hPa | 0 mm | 0 m/s | 0 W/m² | - |
| 1778040785 | 16.67° C | 62% | 1007.4 hPa | 0 mm | 0 m/s | 0 W/m² | - |
* Rain latest hour (hover to see other rain measurements)
** Current wind speed in m/s (hover to see current wind gust speed)